createdAt,value
2018-12-16T00:01:14.956Z,-0.50
2018-12-16T00:03:42.461Z,-0.50
2018-12-16T00:06:09.941Z,-0.50
2018-12-16T00:08:37.407Z,-0.50
2018-12-16T00:11:04.866Z,-0.50
2018-12-16T00:13:32.462Z,-0.50
2018-12-16T00:15:59.902Z,-0.40
2018-12-16T00:18:27.325Z,-0.40
2018-12-16T00:20:54.758Z,-0.40
2018-12-16T00:23:22.193Z,-0.40
2018-12-16T00:25:49.666Z,-0.40
2018-12-16T00:28:17.141Z,-0.40
2018-12-16T00:30:44.581Z,-0.40
2018-12-16T00:33:12.021Z,-0.40
2018-12-16T00:35:39.563Z,-0.40
2018-12-16T00:38:07.020Z,-0.50
2018-12-16T00:40:34.449Z,-0.50
2018-12-16T00:43:01.886Z,-0.40
2018-12-16T00:45:29.314Z,-0.40
2018-12-16T00:47:56.766Z,-0.40
2018-12-16T00:50:24.234Z,-0.40
2018-12-16T00:52:51.673Z,-0.40
2018-12-16T00:55:19.138Z,-0.40
2018-12-16T00:57:46.606Z,-0.40
2018-12-16T01:00:14.294Z,-0.40
2018-12-16T01:02:42.718Z,-0.40
2018-12-16T01:05:10.558Z,-0.40
2018-12-16T01:07:38.045Z,-0.50
2018-12-16T01:10:07.513Z,-0.50
2018-12-16T01:12:34.978Z,-0.40
2018-12-16T01:15:02.492Z,-0.50
2018-12-16T01:17:29.942Z,-0.50
2018-12-16T01:19:57.391Z,-0.50
2018-12-16T01:22:24.842Z,-0.50
2018-12-16T01:24:52.303Z,-0.40
2018-12-16T01:27:19.798Z,-0.50
2018-12-16T01:29:47.242Z,-0.50
2018-12-16T01:32:14.666Z,-0.50
2018-12-16T01:34:42.245Z,-0.50
2018-12-16T01:37:09.769Z,-0.50
2018-12-16T01:39:37.304Z,-0.50
2018-12-16T01:42:04.866Z,-0.60
2018-12-16T01:44:32.317Z,-0.50
2018-12-16T01:46:59.866Z,-0.40
2018-12-16T01:49:27.298Z,-0.40
2018-12-16T01:51:54.754Z,-0.30
2018-12-16T01:54:22.211Z,-0.40
2018-12-16T01:56:49.659Z,-0.40
2018-12-16T01:59:17.134Z,-0.50
2018-12-16T02:01:46.522Z,-0.50
2018-12-16T02:04:13.971Z,-0.40
2018-12-16T02:06:41.415Z,-0.40
2018-12-16T02:09:10.785Z,-0.40
2018-12-16T02:11:38.238Z,-0.40
2018-12-16T02:14:05.715Z,-0.40
2018-12-16T02:16:33.326Z,-0.40
2018-12-16T02:19:00.806Z,-0.40
2018-12-16T02:21:28.231Z,-0.50
2018-12-16T02:23:55.665Z,-0.40
2018-12-16T02:26:23.117Z,-0.40
2018-12-16T02:28:50.548Z,-0.40
2018-12-16T02:31:17.983Z,-0.40
2018-12-16T02:33:45.455Z,-0.50
2018-12-16T02:36:12.986Z,-0.60
2018-12-16T02:38:40.434Z,-0.70
2018-12-16T02:41:07.984Z,-0.80
2018-12-16T02:43:35.931Z,-0.80
2018-12-16T02:46:03.515Z,-0.70
2018-12-16T02:48:31.061Z,-0.80
2018-12-16T02:50:58.522Z,-0.90
2018-12-16T02:53:26.002Z,-0.80
2018-12-16T02:55:53.458Z,-0.90
2018-12-16T02:58:20.890Z,-1.00
2018-12-16T03:00:48.408Z,-1.00
2018-12-16T03:03:15.850Z,-1.00
2018-12-16T03:05:43.311Z,-1.10
2018-12-16T03:08:10.738Z,-1.00
2018-12-16T03:10:38.218Z,-1.00
2018-12-16T03:13:06.506Z,-1.00
2018-12-16T03:15:34.074Z,-1.00
2018-12-16T03:18:01.498Z,-1.00
2018-12-16T03:20:28.978Z,-1.10
2018-12-16T03:22:56.411Z,-1.00
2018-12-16T03:25:23.870Z,-1.10
2018-12-16T03:27:51.358Z,-1.10
2018-12-16T03:30:18.836Z,-1.00
2018-12-16T03:32:46.289Z,-1.10
2018-12-16T03:35:13.846Z,-1.10
2018-12-16T03:37:41.390Z,-1.10
2018-12-16T03:40:08.873Z,-1.10
2018-12-16T03:42:36.291Z,-1.10
2018-12-16T03:45:04.075Z,-1.10
2018-12-16T03:47:31.523Z,-1.20
2018-12-16T03:49:59.061Z,-1.10
2018-12-16T03:52:26.530Z,-1.10
2018-12-16T03:54:53.986Z,-1.10
2018-12-16T03:57:21.429Z,-1.10
2018-12-16T03:59:48.870Z,-1.10
2018-12-16T04:02:16.318Z,-1.10
2018-12-16T04:04:43.834Z,-1.10
2018-12-16T04:07:11.267Z,-1.10
2018-12-16T04:09:38.717Z,-1.20
2018-12-16T04:12:06.190Z,-1.20
2018-12-16T04:14:33.622Z,-1.20
2018-12-16T04:17:01.063Z,-1.30
2018-12-16T04:19:28.526Z,-1.40
2018-12-16T04:21:56.050Z,-1.30
2018-12-16T04:24:23.488Z,-1.40
2018-12-16T04:26:50.943Z,-1.50
2018-12-16T04:29:18.475Z,-1.40
2018-12-16T04:31:46.014Z,-1.50
2018-12-16T04:34:13.446Z,-1.50
2018-12-16T04:36:40.907Z,-1.50
2018-12-16T04:39:08.434Z,-1.50
2018-12-16T04:41:35.900Z,-1.50
2018-12-16T04:44:03.442Z,-1.50
2018-12-16T04:46:30.877Z,-1.40
2018-12-16T04:48:58.305Z,-1.40
2018-12-16T04:51:25.754Z,-1.40
2018-12-16T04:53:53.178Z,-1.50
2018-12-16T04:56:20.612Z,-1.50
2018-12-16T04:58:48.065Z,-1.50
2018-12-16T05:01:15.534Z,-1.50
2018-12-16T05:03:42.977Z,-1.50
2018-12-16T05:06:10.471Z,-1.50
2018-12-16T05:08:37.927Z,-1.50
2018-12-16T05:11:05.373Z,-1.50
2018-12-16T05:13:32.858Z,-1.40
2018-12-16T05:16:00.339Z,-1.40
2018-12-16T05:18:27.819Z,-1.40
2018-12-16T05:20:55.256Z,-1.50
2018-12-16T05:23:22.689Z,-1.40
2018-12-16T05:25:50.168Z,-1.40
2018-12-16T05:28:17.693Z,-1.40
2018-12-16T05:30:45.157Z,-1.40
2018-12-16T05:33:12.851Z,-1.50
2018-12-16T05:35:40.286Z,-1.50
2018-12-16T05:38:07.830Z,-1.50
2018-12-16T05:40:35.255Z,-1.40
2018-12-16T05:43:02.719Z,-1.40
2018-12-16T05:45:30.142Z,-1.40
2018-12-16T05:47:57.606Z,-1.30
2018-12-16T05:50:25.042Z,-1.30
2018-12-16T05:52:52.470Z,-1.30
2018-12-16T05:55:20.026Z,-1.20
2018-12-16T05:57:47.464Z,-1.20
2018-12-16T06:00:14.997Z,-1.20
2018-12-16T06:02:42.440Z,-1.30
2018-12-16T06:05:09.918Z,-1.40
2018-12-16T06:07:37.353Z,-1.40
2018-12-16T06:10:05.939Z,-1.40
2018-12-16T06:12:33.390Z,-1.50
2018-12-16T06:15:00.829Z,-1.40
2018-12-16T06:17:28.284Z,-1.50
2018-12-16T06:19:55.709Z,-1.40
2018-12-16T06:22:23.163Z,-1.40
2018-12-16T06:24:50.603Z,-1.40
2018-12-16T06:27:18.045Z,-1.30
2018-12-16T06:29:45.806Z,-1.20
2018-12-16T06:32:13.249Z,-1.10
2018-12-16T06:34:40.682Z,-1.10
2018-12-16T06:37:08.161Z,-1.10
2018-12-16T06:39:35.674Z,-1.20
2018-12-16T06:42:03.167Z,-1.20
2018-12-16T06:44:30.614Z,-1.20
2018-12-16T06:46:58.071Z,-1.20
2018-12-16T06:49:26.148Z,-1.20
2018-12-16T06:51:53.609Z,-1.20
2018-12-16T06:54:21.067Z,-1.10
2018-12-16T06:56:48.502Z,-1.10
2018-12-16T06:59:15.943Z,-1.10
2018-12-16T07:01:43.422Z,-1.10
2018-12-16T07:04:10.846Z,-1.10
2018-12-16T07:06:38.304Z,-1.00
2018-12-16T07:09:05.977Z,-1.10
2018-12-16T07:11:33.494Z,-1.20
2018-12-16T07:14:00.924Z,-1.20
2018-12-16T07:16:28.384Z,-1.20
2018-12-16T07:18:56.034Z,-1.10
2018-12-16T07:21:23.545Z,-1.10
2018-12-16T07:23:50.970Z,-1.10
2018-12-16T07:26:18.398Z,-1.10
2018-12-16T07:28:45.927Z,-1.10
2018-12-16T07:31:13.372Z,-1.10
2018-12-16T07:33:40.874Z,-1.10
2018-12-16T07:36:08.334Z,-1.10
2018-12-16T07:38:35.792Z,-1.10
2018-12-16T07:41:03.339Z,-1.10
2018-12-16T07:43:30.774Z,-1.10
2018-12-16T07:45:58.223Z,-1.10
2018-12-16T07:48:25.870Z,-1.10
2018-12-16T07:50:53.448Z,-1.00
2018-12-16T07:53:20.951Z,-0.90
2018-12-16T07:55:48.401Z,-1.00
2018-12-16T07:58:15.834Z,-0.90
2018-12-16T08:00:43.274Z,-1.00
2018-12-16T08:03:10.736Z,-0.90
2018-12-16T08:05:38.261Z,-1.10
2018-12-16T08:08:05.764Z,-1.00
2018-12-16T08:10:33.272Z,-1.00
2018-12-16T08:13:00.715Z,-0.90
2018-12-16T08:15:28.138Z,-1.00
2018-12-16T08:17:55.594Z,-1.00
2018-12-16T08:20:23.046Z,-0.90
2018-12-16T08:22:50.474Z,-0.90
2018-12-16T08:25:17.898Z,-1.00
2018-12-16T08:27:45.338Z,-1.00
2018-12-16T08:30:12.819Z,-1.00
2018-12-16T08:32:40.562Z,-1.00
2018-12-16T08:35:08.046Z,-0.90
2018-12-16T08:37:35.509Z,-0.90
2018-12-16T08:40:03.191Z,-0.90
2018-12-16T08:42:30.650Z,-0.90
2018-12-16T08:44:58.074Z,-1.00
2018-12-16T08:47:25.545Z,0.20
2018-12-16T08:49:53.195Z,0.00
2018-12-16T08:52:20.632Z,-0.30
2018-12-16T08:54:48.086Z,-0.40
2018-12-16T08:57:15.548Z,-0.50
2018-12-16T08:59:42.998Z,-0.50
2018-12-16T09:02:10.490Z,-0.60
2018-12-16T09:04:37.930Z,-0.70
2018-12-16T09:07:05.410Z,-0.70
2018-12-16T09:09:33.746Z,-0.80
2018-12-16T09:12:01.222Z,-0.80
2018-12-16T09:14:28.651Z,-0.70
2018-12-16T09:16:56.774Z,-0.60
2018-12-16T09:19:24.214Z,-0.60
2018-12-16T09:21:51.674Z,-0.60
2018-12-16T09:24:19.132Z,-0.50
2018-12-16T09:26:47.087Z,-0.60
2018-12-16T09:29:14.517Z,-0.70
2018-12-16T09:31:41.973Z,-0.50
2018-12-16T09:34:09.473Z,-0.50
2018-12-16T09:36:37.070Z,-0.40
2018-12-16T09:39:06.250Z,-0.50
2018-12-16T09:41:33.682Z,-0.50
2018-12-16T09:44:01.147Z,-0.50
2018-12-16T09:46:30.038Z,-0.50
2018-12-16T09:48:57.694Z,-0.50
2018-12-16T09:51:25.154Z,-0.50
2018-12-16T09:53:52.591Z,-0.40
2018-12-16T09:56:20.020Z,-0.40
2018-12-16T09:58:47.457Z,-0.40
2018-12-16T10:01:14.910Z,-0.30
2018-12-16T10:03:42.372Z,-0.20
2018-12-16T10:06:09.897Z,-0.20
2018-12-16T10:08:37.354Z,-0.20
2018-12-16T10:11:04.812Z,-0.20
2018-12-16T10:13:32.249Z,-0.10
2018-12-16T10:15:59.662Z,0.00
2018-12-16T10:18:27.443Z,0.00
2018-12-16T10:20:54.982Z,0.10
2018-12-16T10:23:22.410Z,0.10
2018-12-16T10:25:49.889Z,0.00
2018-12-16T10:28:17.322Z,0.10
2018-12-16T10:30:44.773Z,0.00
2018-12-16T10:33:12.236Z,0.10
2018-12-16T10:35:39.702Z,0.20
2018-12-16T10:38:07.134Z,0.30
2018-12-16T10:40:34.582Z,0.30
2018-12-16T10:43:02.038Z,0.20
2018-12-16T10:45:29.505Z,0.20
2018-12-16T10:47:56.997Z,0.20
2018-12-16T10:50:24.442Z,0.20
2018-12-16T10:52:51.880Z,0.30
2018-12-16T10:55:19.320Z,0.30
2018-12-16T10:57:46.781Z,0.40
2018-12-16T11:00:19.833Z,0.50
2018-12-16T11:02:47.285Z,0.50
2018-12-16T11:05:15.161Z,0.60
2018-12-16T11:07:42.598Z,0.60
2018-12-16T11:10:10.077Z,0.60
2018-12-16T11:12:38.025Z,0.60
2018-12-16T11:15:05.690Z,0.60
2018-12-16T11:17:33.117Z,0.60
2018-12-16T11:20:00.553Z,0.60
2018-12-16T11:22:27.986Z,0.60
2018-12-16T11:24:55.438Z,0.50
2018-12-16T11:27:22.939Z,0.30
2018-12-16T11:29:50.394Z,0.30
2018-12-16T11:32:17.850Z,0.30
2018-12-16T11:34:45.286Z,0.50
2018-12-16T11:37:12.742Z,0.50
2018-12-16T11:39:40.206Z,0.50
2018-12-16T11:42:07.648Z,0.50
2018-12-16T11:44:35.181Z,0.50
2018-12-16T11:47:02.602Z,0.40
2018-12-16T11:49:30.083Z,0.50
2018-12-16T11:51:57.533Z,0.60
2018-12-16T11:54:24.985Z,0.60
2018-12-16T11:56:52.434Z,0.50
2018-12-16T11:59:19.882Z,0.50
2018-12-16T12:01:47.349Z,0.40
2018-12-16T12:04:14.781Z,0.40
2018-12-16T12:06:42.226Z,0.50
2018-12-16T12:09:09.654Z,0.40
2018-12-16T12:11:37.076Z,0.50
2018-12-16T12:14:04.550Z,0.60
2018-12-16T12:16:32.002Z,0.60
2018-12-16T12:19:00.102Z,0.50
2018-12-16T12:21:27.571Z,0.60
2018-12-16T12:23:55.552Z,0.60
2018-12-16T12:26:23.101Z,0.60
2018-12-16T12:28:50.550Z,0.60
2018-12-16T12:31:18.207Z,0.60
2018-12-16T12:33:45.662Z,0.60
2018-12-16T12:36:13.310Z,0.60
2018-12-16T12:38:40.741Z,0.60
2018-12-16T12:41:08.190Z,0.60
2018-12-16T12:43:35.623Z,0.60
2018-12-16T12:46:03.177Z,0.70
2018-12-16T12:48:30.618Z,0.60
2018-12-16T12:50:58.074Z,0.70
2018-12-16T12:53:25.522Z,0.70
2018-12-16T12:55:52.974Z,0.60
2018-12-16T12:58:20.426Z,0.80
2018-12-16T13:00:47.881Z,0.80
2018-12-16T13:03:15.306Z,0.80
2018-12-16T13:05:42.736Z,0.90
2018-12-16T13:08:10.162Z,0.90
2018-12-16T13:10:37.614Z,0.80
2018-12-16T13:13:05.041Z,0.70
2018-12-16T13:15:32.494Z,0.80
2018-12-16T13:17:59.929Z,0.70
2018-12-16T13:20:27.365Z,0.70
2018-12-16T13:22:54.787Z,0.80
2018-12-16T13:25:35.729Z,0.80
2018-12-16T13:28:03.330Z,0.70
2018-12-16T13:30:30.786Z,0.80
2018-12-16T13:32:58.262Z,0.80
2018-12-16T13:35:25.700Z,0.70
2018-12-16T13:37:53.142Z,0.80
2018-12-16T13:40:20.569Z,0.80
2018-12-16T13:42:47.999Z,0.80
2018-12-16T13:45:15.469Z,0.90
2018-12-16T13:47:42.933Z,0.90
2018-12-16T13:50:10.406Z,1.00
2018-12-16T13:52:37.854Z,0.90
2018-12-16T13:55:05.646Z,0.90
2018-12-16T13:57:34.298Z,0.90
2018-12-16T14:00:01.732Z,1.00
2018-12-16T14:02:29.149Z,1.00
2018-12-16T14:04:56.609Z,1.00
2018-12-16T14:07:24.032Z,1.00
2018-12-16T14:09:51.467Z,1.10
2018-12-16T14:12:18.913Z,1.10
2018-12-16T14:14:46.348Z,1.00
2018-12-16T14:17:13.810Z,1.10
2018-12-16T14:19:41.290Z,1.20
2018-12-16T14:22:08.751Z,1.20
2018-12-16T14:24:36.207Z,1.30
2018-12-16T14:27:03.650Z,1.30
2018-12-16T14:29:31.118Z,1.40
2018-12-16T14:31:58.566Z,1.40
2018-12-16T14:34:26.004Z,1.40
2018-12-16T14:36:53.458Z,1.40
2018-12-16T14:39:20.888Z,1.40
2018-12-16T14:41:48.342Z,1.50
2018-12-16T14:44:15.790Z,1.50
2018-12-16T14:46:43.242Z,1.50
2018-12-16T14:49:10.669Z,1.40
2018-12-16T14:51:38.138Z,1.50
2018-12-16T14:54:05.574Z,1.50
2018-12-16T14:56:33.010Z,1.50
2018-12-16T14:59:00.437Z,1.50
2018-12-16T15:01:27.978Z,1.50
2018-12-16T15:03:55.406Z,1.50
2018-12-16T15:06:22.862Z,1.50
2018-12-16T15:08:50.283Z,1.50
2018-12-16T15:11:17.798Z,1.50
2018-12-16T15:13:45.274Z,1.50
2018-12-16T15:16:12.742Z,1.40
2018-12-16T15:18:40.254Z,1.40
2018-12-16T15:21:07.687Z,1.40
2018-12-16T15:23:35.148Z,1.40
2018-12-16T15:26:02.646Z,1.40
2018-12-16T15:28:30.099Z,1.30
2018-12-16T15:30:57.537Z,1.40
2018-12-16T15:33:24.980Z,1.40
2018-12-16T15:35:52.465Z,1.50
2018-12-16T15:38:19.893Z,1.50
2018-12-16T15:40:47.322Z,1.40
2018-12-16T15:43:14.811Z,1.50
2018-12-16T15:45:42.261Z,1.50
2018-12-16T15:48:09.678Z,1.50
2018-12-16T15:50:37.187Z,1.50
2018-12-16T15:53:04.662Z,1.50
2018-12-16T15:55:32.114Z,1.50
2018-12-16T15:57:59.558Z,1.50
2018-12-16T16:00:27.029Z,1.50
2018-12-16T16:02:54.565Z,1.50
2018-12-16T16:05:21.998Z,1.60
2018-12-16T16:07:49.430Z,1.60
2018-12-16T16:10:16.889Z,1.60
2018-12-16T16:12:44.350Z,1.70
2018-12-16T16:15:11.826Z,1.60
2018-12-16T16:17:39.290Z,1.60
2018-12-16T16:20:06.954Z,1.60
2018-12-16T16:22:34.393Z,1.60
2018-12-16T16:25:01.842Z,1.60
2018-12-16T16:27:29.275Z,1.60
2018-12-16T16:29:56.698Z,1.60
2018-12-16T16:32:24.283Z,1.60
2018-12-16T16:34:51.682Z,1.60
2018-12-16T16:37:19.138Z,1.60
2018-12-16T16:39:46.586Z,1.70
2018-12-16T16:42:14.038Z,1.70
2018-12-16T16:44:41.527Z,1.80
2018-12-16T16:47:09.046Z,1.80
2018-12-16T16:49:36.493Z,1.90
2018-12-16T16:52:03.943Z,2.00
2018-12-16T16:54:31.394Z,2.00
2018-12-16T16:56:58.926Z,2.00
2018-12-16T16:59:26.350Z,1.90
2018-12-16T17:01:53.814Z,1.90
2018-12-16T17:04:21.238Z,1.90
2018-12-16T17:06:48.781Z,1.90
2018-12-16T17:09:16.314Z,1.90
2018-12-16T17:11:43.798Z,1.90
2018-12-16T17:14:11.242Z,1.90
2018-12-16T17:16:38.797Z,1.90
2018-12-16T17:19:06.690Z,1.90
2018-12-16T17:21:34.297Z,1.90
2018-12-16T17:24:01.749Z,1.90
2018-12-16T17:26:30.205Z,1.90
2018-12-16T17:28:57.926Z,2.00
2018-12-16T17:31:25.385Z,2.00
2018-12-16T17:33:52.821Z,2.00
2018-12-16T17:36:20.273Z,2.00
2018-12-16T17:38:47.702Z,1.90
2018-12-16T17:41:15.162Z,1.90
2018-12-16T17:43:42.584Z,2.00
2018-12-16T17:46:10.016Z,2.00
2018-12-16T17:48:37.446Z,2.00
2018-12-16T17:51:04.888Z,2.10
2018-12-16T17:53:32.400Z,2.10
2018-12-16T17:56:00.234Z,2.10
2018-12-16T17:58:27.910Z,2.10
2018-12-16T18:00:55.337Z,2.10
2018-12-16T18:03:22.776Z,2.10
2018-12-16T18:05:50.202Z,2.10
2018-12-16T18:08:17.629Z,2.10
2018-12-16T18:10:45.076Z,2.00
2018-12-16T18:13:12.509Z,2.10
2018-12-16T18:15:39.934Z,2.10
2018-12-16T18:18:07.401Z,2.10
2018-12-16T18:20:34.877Z,2.10
2018-12-16T18:23:02.352Z,2.10
2018-12-16T18:25:29.875Z,2.10
2018-12-16T18:27:57.311Z,2.10
2018-12-16T18:30:24.777Z,2.20
2018-12-16T18:32:52.537Z,2.20
2018-12-16T18:35:20.051Z,2.20
2018-12-16T18:37:47.498Z,2.20
2018-12-16T18:40:15.046Z,2.20
2018-12-16T18:42:42.530Z,2.20
2018-12-16T18:45:09.982Z,2.20
2018-12-16T18:47:37.410Z,2.30
2018-12-16T18:50:07.178Z,2.20
2018-12-16T18:52:34.629Z,2.20
2018-12-16T18:55:02.098Z,2.30
2018-12-16T18:57:29.530Z,2.30
2018-12-16T18:59:57.461Z,4.80
2018-12-16T19:02:24.927Z,4.50
2018-12-16T19:04:52.442Z,3.90
2018-12-16T19:07:19.990Z,3.50
2018-12-16T19:09:47.429Z,3.20
2018-12-16T19:12:14.906Z,2.90
2018-12-16T19:14:42.763Z,2.70
2018-12-16T19:17:10.217Z,2.60
2018-12-16T19:19:37.654Z,2.50
2018-12-16T19:22:05.238Z,2.40
2018-12-16T19:24:32.678Z,2.40
2018-12-16T19:27:00.130Z,2.40
2018-12-16T19:29:27.581Z,2.30
2018-12-16T19:31:55.037Z,2.30
2018-12-16T19:34:22.495Z,2.30
2018-12-16T19:36:49.987Z,2.30
2018-12-16T19:39:17.522Z,2.20
2018-12-16T19:41:45.054Z,2.20
2018-12-16T19:44:12.550Z,2.30
2018-12-16T19:46:39.994Z,2.30
2018-12-16T19:49:07.570Z,2.30
2018-12-16T19:51:34.992Z,2.30
2018-12-16T19:54:02.426Z,2.30
2018-12-16T19:56:29.931Z,2.30
2018-12-16T19:58:57.365Z,2.30
2018-12-16T20:01:24.835Z,2.30
2018-12-16T20:03:58.156Z,2.30
2018-12-16T20:06:31.198Z,2.30
2018-12-16T20:08:58.638Z,2.30
2018-12-16T20:11:26.086Z,2.30
2018-12-16T20:13:53.524Z,2.40
2018-12-16T20:16:20.990Z,2.30
2018-12-16T20:18:48.466Z,2.30
2018-12-16T20:21:16.850Z,2.30
2018-12-16T20:23:44.598Z,2.30
2018-12-16T20:26:12.043Z,2.30
2018-12-16T20:28:39.476Z,2.30
2018-12-16T20:31:06.959Z,2.20
2018-12-16T20:33:34.428Z,2.30
2018-12-16T20:36:01.874Z,2.30
2018-12-16T20:38:29.362Z,2.30
2018-12-16T20:40:56.831Z,2.30
2018-12-16T20:43:24.287Z,2.30
2018-12-16T20:45:51.757Z,2.30
2018-12-16T20:48:19.194Z,2.20
2018-12-16T20:50:46.648Z,2.20
2018-12-16T20:53:14.202Z,2.30
2018-12-16T20:55:41.654Z,2.40
2018-12-16T20:58:09.306Z,2.30
2018-12-16T21:00:36.776Z,2.40
2018-12-16T21:03:04.223Z,2.30
2018-12-16T21:05:31.666Z,2.40
2018-12-16T21:07:59.221Z,2.30
2018-12-16T21:10:26.667Z,2.30
2018-12-16T21:13:00.789Z,2.30
2018-12-16T21:15:34.069Z,2.30
2018-12-16T21:18:07.139Z,2.20
2018-12-16T21:20:34.578Z,2.30
2018-12-16T21:23:02.129Z,2.30
2018-12-16T21:25:29.666Z,2.20
2018-12-16T21:27:57.085Z,2.30
2018-12-16T21:30:24.538Z,2.30
2018-12-16T21:32:51.962Z,2.30
2018-12-16T21:35:19.419Z,2.20
2018-12-16T21:37:46.848Z,2.30
2018-12-16T21:40:14.400Z,2.30
2018-12-16T21:42:41.817Z,2.30
2018-12-16T21:45:09.322Z,2.30
2018-12-16T21:47:36.747Z,2.30
2018-12-16T21:50:05.026Z,2.30
2018-12-16T21:52:32.475Z,2.40
2018-12-16T21:54:59.911Z,2.40
2018-12-16T21:57:33.089Z,2.30
2018-12-16T21:59:56.749Z,2.40
2018-12-16T22:02:24.198Z,2.30
2018-12-16T22:04:51.646Z,2.30
2018-12-16T22:07:19.074Z,2.30
2018-12-16T22:09:46.509Z,2.30
2018-12-16T22:12:13.939Z,2.30
2018-12-16T22:14:41.370Z,2.20
2018-12-16T22:17:08.828Z,2.30
2018-12-16T22:19:36.261Z,2.30
2018-12-16T22:22:03.707Z,2.30
2018-12-16T22:24:31.246Z,2.30
2018-12-16T22:26:58.686Z,2.20
2018-12-16T22:29:26.119Z,2.20
2018-12-16T22:31:53.548Z,2.30
2018-12-16T22:34:21.041Z,2.30
2018-12-16T22:36:48.522Z,2.30
2018-12-16T22:39:16.021Z,2.40
2018-12-16T22:41:43.540Z,2.40
2018-12-16T22:44:11.228Z,2.40
2018-12-16T22:46:38.836Z,2.40
2018-12-16T22:49:06.371Z,2.40
2018-12-16T22:51:33.909Z,2.50
2018-12-16T22:54:01.334Z,2.50
2018-12-16T22:56:29.078Z,2.50
2018-12-16T22:58:56.503Z,2.60
2018-12-16T23:01:23.958Z,2.50
2018-12-16T23:03:51.402Z,2.50
2018-12-16T23:06:18.860Z,2.50
2018-12-16T23:08:46.282Z,2.50
2018-12-16T23:11:13.745Z,2.50
2018-12-16T23:13:41.185Z,2.50
2018-12-16T23:16:08.671Z,2.60
2018-12-16T23:18:36.137Z,2.60
2018-12-16T23:21:03.587Z,2.60
2018-12-16T23:23:31.010Z,2.70
2018-12-16T23:25:58.466Z,2.60
2018-12-16T23:28:25.910Z,2.60
2018-12-16T23:30:53.342Z,2.60
2018-12-16T23:33:20.776Z,2.70
2018-12-16T23:35:48.217Z,2.70
2018-12-16T23:38:16.486Z,2.80
2018-12-16T23:40:43.925Z,2.80
2018-12-16T23:43:11.370Z,2.80
2018-12-16T23:45:38.794Z,2.80
2018-12-16T23:48:06.269Z,2.80
2018-12-16T23:50:33.826Z,2.80
2018-12-16T23:53:01.242Z,2.80
2018-12-16T23:55:28.674Z,2.80
2018-12-16T23:58:01.018Z,2.90
